Blidworth, United Kingdom
Current Conditions -  °F | °C
As of 4:20 AM on Wednesday 26 Nov 2014 (Local Time) from EGNX Reporting Station
Light Rain Light Rain  
Wind Chill: 40°   Ceiling: 3300
Heat Index: 45°   Visibility: 4mi
Dew Point: 45°   Wind: 8mph
Humidity: 100%   Direction: 50°NE
Pressure: 29.94"   Gusts: NA
Location:  53.1°N, 1.12°W
Report Text: EGNX 260420Z 05007KT 7000 -RA FEW009 SCT021 BKN033 07/07 Q1014
Loading
Personal Weather Stations






























Interactive Weather Map New forecast layout! Learn more

10-Day Weather Forecast

Advertisements
Track Severe Weather on mobile